Terminal Aerodrome Forecast
Issued by NWS

Home | Current Version | Previous Version | Text Only | Print | Product List | Glossary On
Versions: 1 2 3 4 5 6 7 8 9 10 11 12 13 14
000
FTUS42 KGSP 190521
TAFGMU
TAF
KGMU 190521Z 1906/2006 01007KT P6SM SCT050 BKN250
     FM191200 02003KT P6SM FEW060 SCT250
     FM191900 08003KT P6SM SCT250
     FM200300 08003KT P6SM -RA BKN070=

USA.gov is the U.S. government's official web portal to all federal, state and local government web resources and services.